createdAt,value
2022-10-26T00:01:16.160Z,84.52
2022-10-26T00:03:44.286Z,83.97
2022-10-26T00:06:14.540Z,84.75
2022-10-26T00:08:41.176Z,84.13
2022-10-26T00:11:08.214Z,84.06
2022-10-26T00:13:35.846Z,84.06
2022-10-26T00:16:08.425Z,84.08
2022-10-26T00:18:35.043Z,84.13
2022-10-26T00:21:05.743Z,84.29
2022-10-26T00:23:32.912Z,84.57
2022-10-26T00:25:59.796Z,83.91
2022-10-26T00:28:26.654Z,83.89
2022-10-26T00:30:53.294Z,84.44
2022-10-26T00:33:20.180Z,84.47
2022-10-26T00:35:56.221Z,84.67
2022-10-26T00:38:23.041Z,84.51
2022-10-26T00:40:49.806Z,84.30
2022-10-26T00:43:33.802Z,85.77
2022-10-26T00:46:03.085Z,85.95
2022-10-26T00:48:35.205Z,86.39
2022-10-26T00:51:08.392Z,86.53
2022-10-26T00:53:35.645Z,85.85
2022-10-26T00:56:03.155Z,85.99
2022-10-26T00:58:30.546Z,85.91
2022-10-26T01:00:57.126Z,85.61
2022-10-26T01:03:27.865Z,85.89
2022-10-26T01:05:57.577Z,86.09
2022-10-26T01:08:28.089Z,85.54
2022-10-26T01:10:57.191Z,85.45
2022-10-26T01:13:26.865Z,85.90
2022-10-26T01:15:59.107Z,85.56
2022-10-26T01:19:07.318Z,86.03
2022-10-26T01:21:55.126Z,85.47
2022-10-26T01:25:03.355Z,85.84
2022-10-26T01:27:37.548Z,85.50
2022-10-26T01:30:22.563Z,86.08
2022-10-26T01:32:57.615Z,85.28
2022-10-26T01:35:33.189Z,85.12
2022-10-26T01:38:08.425Z,85.08
2022-10-26T01:40:40.661Z,85.14
2022-10-26T01:43:11.212Z,85.05
2022-10-26T01:45:42.063Z,85.35
2022-10-26T01:48:13.117Z,85.37
2022-10-26T01:50:41.904Z,85.77
2022-10-26T01:53:12.485Z,85.98
2022-10-26T01:55:39.021Z,85.72
2022-10-26T01:58:33.473Z,86.20
2022-10-26T02:01:33.076Z,86.01
2022-10-26T02:04:08.536Z,86.53
2022-10-26T02:06:58.081Z,86.37
2022-10-26T02:09:24.599Z,85.77
2022-10-26T02:11:54.121Z,86.17
2022-10-26T02:14:49.005Z,85.94
2022-10-26T02:17:30.042Z,85.99
2022-10-26T02:20:03.375Z,85.76
2022-10-26T02:22:34.141Z,86.25
2022-10-26T02:25:06.582Z,85.71
2022-10-26T02:27:37.518Z,85.59
2022-10-26T02:30:05.452Z,85.16
2022-10-26T02:32:36.205Z,85.25
2022-10-26T02:35:04.983Z,85.62
2022-10-26T02:37:34.495Z,85.59
2022-10-26T02:40:04.621Z,85.24
2022-10-26T02:42:32.534Z,85.43
2022-10-26T02:45:04.967Z,84.95
2022-10-26T02:47:31.861Z,84.83
2022-10-26T02:49:58.462Z,85.21
2022-10-26T02:52:47.144Z,85.46
2022-10-26T02:55:23.863Z,85.05
2022-10-26T02:57:56.301Z,85.25
2022-10-26T03:00:22.881Z,84.88
2022-10-26T03:02:57.113Z,84.57
2022-10-26T03:05:27.961Z,84.48
2022-10-26T03:07:56.267Z,85.21
2022-10-26T03:10:22.854Z,85.02
2022-10-26T03:12:50.088Z,84.65
2022-10-26T03:15:16.940Z,84.66
2022-10-26T03:17:43.787Z,84.89
2022-10-26T03:20:10.805Z,84.82
2022-10-26T03:22:37.360Z,85.07
2022-10-26T03:25:04.477Z,84.77
2022-10-26T03:27:31.401Z,84.93
2022-10-26T03:29:57.961Z,84.51
2022-10-26T03:32:24.530Z,84.99
2022-10-26T03:34:51.226Z,84.49
2022-10-26T03:37:17.785Z,84.56
2022-10-26T03:39:44.362Z,84.97
2022-10-26T03:42:10.886Z,84.52
2022-10-26T03:44:37.470Z,84.46
2022-10-26T03:47:04.083Z,84.83
2022-10-26T03:49:30.687Z,84.67
2022-10-26T03:51:57.233Z,84.88
2022-10-26T03:54:23.845Z,84.77
2022-10-26T03:56:52.734Z,84.60
2022-10-26T03:59:21.499Z,85.22
2022-10-26T04:01:48.115Z,84.56
2022-10-26T04:04:14.851Z,84.51
2022-10-26T04:06:41.493Z,84.34
2022-10-26T04:09:08.238Z,84.59
2022-10-26T04:11:34.886Z,84.31
2022-10-26T04:14:01.496Z,84.94
2022-10-26T04:16:31.108Z,84.29
2022-10-26T04:19:00.372Z,84.69
2022-10-26T04:21:26.971Z,84.86
2022-10-26T04:23:53.509Z,84.68
2022-10-26T04:26:20.095Z,85.22
2022-10-26T04:28:46.677Z,85.05
2022-10-26T04:31:13.244Z,84.71
2022-10-26T04:33:39.831Z,85.15
2022-10-26T04:36:06.854Z,84.44
2022-10-26T04:38:33.427Z,84.95
2022-10-26T04:41:00.005Z,85.21
2022-10-26T04:43:26.591Z,84.90
2022-10-26T04:45:57.860Z,85.12
2022-10-26T04:50:52.085Z,85.41
2022-10-26T04:53:18.650Z,84.59
2022-10-26T04:55:45.314Z,85.07
2022-10-26T04:58:12.498Z,85.12
2022-10-26T05:00:39.074Z,84.77
2022-10-26T05:03:07.436Z,84.46
2022-10-26T05:05:36.550Z,84.80
2022-10-26T05:08:03.889Z,84.57
2022-10-26T05:10:30.475Z,84.63
2022-10-26T05:12:59.250Z,85.37
2022-10-26T05:15:26.282Z,85.29
2022-10-26T05:17:57.365Z,85.46
2022-10-26T05:20:29.494Z,84.92
2022-10-26T05:23:01.211Z,84.84
2022-10-26T05:25:29.229Z,84.91
2022-10-26T05:28:03.187Z,84.71
2022-10-26T05:30:30.712Z,84.81
2022-10-26T05:32:58.734Z,84.68
2022-10-26T05:35:26.804Z,85.15
2022-10-26T05:37:54.136Z,85.44
2022-10-26T05:40:21.883Z,85.07
2022-10-26T05:42:48.719Z,84.83
2022-10-26T05:45:17.470Z,84.99
2022-10-26T05:47:45.216Z,85.70
2022-10-26T05:50:12.819Z,85.28
2022-10-26T05:52:40.713Z,85.21
2022-10-26T05:55:09.422Z,85.52
2022-10-26T05:57:36.539Z,85.05
2022-10-26T06:00:08.538Z,85.65
2022-10-26T06:02:54.023Z,85.51
2022-10-26T06:05:26.819Z,85.59
2022-10-26T06:07:53.997Z,85.17
2022-10-26T06:10:20.860Z,85.07
2022-10-26T06:12:47.923Z,85.12
2022-10-26T06:15:22.017Z,85.74
2022-10-26T06:18:04.398Z,85.88
2022-10-26T06:20:50.583Z,85.70
2022-10-26T06:23:56.453Z,85.94
2022-10-26T06:26:36.825Z,85.05
2022-10-26T06:29:22.677Z,85.70
2022-10-26T06:31:49.463Z,85.52
2022-10-26T06:34:25.755Z,86.02
2022-10-26T06:39:27.831Z,85.35
2022-10-26T06:41:56.621Z,85.85
2022-10-26T06:44:25.967Z,85.78
2022-10-26T06:47:26.292Z,86.61
2022-10-26T06:50:03.701Z,86.43
2022-10-26T06:53:03.049Z,87.01
2022-10-26T06:55:37.642Z,87.00
2022-10-26T06:58:04.743Z,86.03
2022-10-26T07:03:03.625Z,86.17
2022-10-26T07:05:30.255Z,86.35
2022-10-26T07:07:56.976Z,86.41
2022-10-26T07:10:26.510Z,86.18
2022-10-26T07:12:53.187Z,86.90
2022-10-26T07:15:19.779Z,86.08
2022-10-26T07:17:48.485Z,87.00
2022-10-26T07:20:17.645Z,86.62
2022-10-26T07:22:44.263Z,86.22
2022-10-26T07:25:12.322Z,86.02
2022-10-26T07:27:39.129Z,85.89
2022-10-26T07:30:06.315Z,85.34
2022-10-26T07:32:33.048Z,85.38
2022-10-26T07:34:59.596Z,84.33
2022-10-26T07:37:26.164Z,84.54
2022-10-26T07:39:52.754Z,84.67
2022-10-26T07:42:19.493Z,84.05
2022-10-26T07:44:46.050Z,85.01
2022-10-26T07:47:12.649Z,85.16
2022-10-26T07:49:39.293Z,83.79
2022-10-26T07:52:05.906Z,84.27
2022-10-26T07:54:32.777Z,84.10
2022-10-26T07:56:59.401Z,83.60
2022-10-26T07:59:26.646Z,83.68
2022-10-26T08:01:53.544Z,83.79
2022-10-26T08:04:23.419Z,82.79
2022-10-26T08:06:49.977Z,82.46
2022-10-26T08:09:16.571Z,82.42
2022-10-26T08:11:43.172Z,82.80
2022-10-26T08:14:10.972Z,82.50
2022-10-26T08:16:40.236Z,82.96
2022-10-26T08:19:08.535Z,82.21
2022-10-26T08:21:39.786Z,82.24
2022-10-26T08:24:07.301Z,82.36
2022-10-26T08:26:33.922Z,83.04
2022-10-26T08:29:00.457Z,82.27
2022-10-26T08:31:27.241Z,82.79
2022-10-26T08:33:53.811Z,82.84
2022-10-26T08:36:24.050Z,82.37
2022-10-26T08:38:50.704Z,82.16
2022-10-26T08:41:23.107Z,82.77
2022-10-26T08:43:58.693Z,82.49
2022-10-26T08:46:32.369Z,82.67
2022-10-26T08:49:09.988Z,82.21
2022-10-26T08:51:40.479Z,82.45
2022-10-26T08:54:17.138Z,82.82
2022-10-26T08:56:52.998Z,81.42
2022-10-26T08:59:37.464Z,81.30
2022-10-26T09:02:11.306Z,81.01
2022-10-26T09:04:37.904Z,79.95
2022-10-26T09:07:07.498Z,80.90
2022-10-26T09:09:43.105Z,80.95
2022-10-26T09:12:28.478Z,80.44
2022-10-26T09:15:18.762Z,80.65
2022-10-26T09:17:57.084Z,81.08
2022-10-26T09:20:51.282Z,80.96
2022-10-26T09:23:29.937Z,80.14
2022-10-26T09:26:02.699Z,79.60
2022-10-26T09:28:34.714Z,79.41
2022-10-26T09:31:02.701Z,78.62
2022-10-26T09:33:34.647Z,78.26
2022-10-26T09:36:13.166Z,78.33
2022-10-26T09:39:01.116Z,78.41
2022-10-26T09:41:38.721Z,78.41
2022-10-26T09:44:42.603Z,78.51
2022-10-26T09:47:29.008Z,77.91
2022-10-26T09:50:01.682Z,78.81
2022-10-26T09:52:28.261Z,78.52
2022-10-26T09:54:54.994Z,78.59
2022-10-26T09:57:21.930Z,78.44
2022-10-26T09:59:50.756Z,78.33
2022-10-26T10:02:36.801Z,78.37
2022-10-26T10:05:50.836Z,77.92
2022-10-26T10:08:26.517Z,78.06
2022-10-26T10:10:55.208Z,78.31
2022-10-26T10:13:24.431Z,77.79
2022-10-26T10:15:53.594Z,78.08
2022-10-26T10:18:22.724Z,78.11
2022-10-26T10:20:58.046Z,77.80
2022-10-26T10:23:33.942Z,77.68
2022-10-26T10:26:07.153Z,76.97
2022-10-26T10:28:36.524Z,77.28
2022-10-26T10:31:19.892Z,77.62
2022-10-26T10:33:46.769Z,77.91
2022-10-26T10:36:20.200Z,76.57
2022-10-26T10:38:49.496Z,77.14
2022-10-26T10:41:36.404Z,76.55
2022-10-26T10:44:24.354Z,77.71
2022-10-26T10:46:51.147Z,76.96
2022-10-26T10:49:25.377Z,77.13
2022-10-26T10:51:52.166Z,77.68
2022-10-26T10:54:24.842Z,77.41
2022-10-26T10:57:02.216Z,75.55
2022-10-26T10:59:51.882Z,76.60
2022-10-26T11:02:43.203Z,74.16
2022-10-26T11:05:24.901Z,73.60
2022-10-26T11:08:02.910Z,74.23
2022-10-26T11:10:35.156Z,72.21
2022-10-26T11:13:06.975Z,73.31
2022-10-26T11:15:37.255Z,72.19
2022-10-26T11:18:21.879Z,72.21
2022-10-26T11:23:31.821Z,72.88
2022-10-26T11:26:33.969Z,71.45
2022-10-26T11:29:11.688Z,73.04
2022-10-26T11:31:43.651Z,72.25
2022-10-26T11:34:17.979Z,72.09
2022-10-26T11:36:49.118Z,71.62
2022-10-26T11:39:44.842Z,73.20
2022-10-26T11:42:28.263Z,71.61
2022-10-26T11:45:17.814Z,71.16
2022-10-26T11:47:52.557Z,71.39
2022-10-26T11:50:25.421Z,71.80
2022-10-26T11:52:58.670Z,71.72
2022-10-26T11:55:25.454Z,70.99
2022-10-26T11:57:55.267Z,71.94
2022-10-26T12:00:23.102Z,71.56
2022-10-26T12:03:02.722Z,70.82
2022-10-26T12:05:32.274Z,70.96
2022-10-26T12:08:08.521Z,70.48
2022-10-26T12:10:40.078Z,70.99
2022-10-26T12:13:43.445Z,70.66
2022-10-26T12:17:04.338Z,70.41
2022-10-26T12:19:43.953Z,70.55
2022-10-26T12:22:16.546Z,70.75
2022-10-26T12:25:04.251Z,70.67
2022-10-26T12:27:39.978Z,69.06
2022-10-26T12:30:18.698Z,69.23
2022-10-26T12:32:45.220Z,69.95
2022-10-26T12:35:30.367Z,70.01
2022-10-26T12:37:57.610Z,71.13
2022-10-26T12:40:33.307Z,69.18
2022-10-26T12:43:18.304Z,69.53
2022-10-26T12:45:47.101Z,70.35
2022-10-26T12:48:47.372Z,69.74
2022-10-26T12:51:22.929Z,70.57
2022-10-26T12:54:04.594Z,69.63
2022-10-26T12:56:41.993Z,70.89
2022-10-26T12:59:26.562Z,70.07
2022-10-26T13:02:11.366Z,71.26
2022-10-26T13:05:04.111Z,70.72
2022-10-26T13:07:39.785Z,70.91
2022-10-26T13:10:12.332Z,70.73
2022-10-26T13:12:58.029Z,70.61
2022-10-26T13:15:28.908Z,71.08
2022-10-26T13:18:00.833Z,70.14
2022-10-26T13:20:30.901Z,70.95
2022-10-26T13:22:57.996Z,71.33
2022-10-26T13:25:28.033Z,70.99
2022-10-26T13:28:29.244Z,69.92
2022-10-26T13:30:55.783Z,70.57
2022-10-26T13:33:32.554Z,69.94
2022-10-26T13:36:06.492Z,70.84
2022-10-26T13:38:37.027Z,71.30
2022-10-26T13:41:15.355Z,69.63
2022-10-26T13:43:43.029Z,70.67
2022-10-26T13:46:43.024Z,69.99
2022-10-26T13:49:26.938Z,69.97
2022-10-26T13:51:54.315Z,70.90
2022-10-26T13:54:35.470Z,70.59
2022-10-26T13:57:07.892Z,70.44
2022-10-26T13:59:39.327Z,71.39
2022-10-26T14:02:14.664Z,71.46
2022-10-26T14:04:41.240Z,71.86
2022-10-26T14:07:18.071Z,71.79
2022-10-26T14:09:50.257Z,72.16
2022-10-26T14:12:18.379Z,72.13
2022-10-26T14:14:45.065Z,72.36
2022-10-26T14:17:24.578Z,73.00
2022-10-26T14:19:51.948Z,72.67
2022-10-26T14:22:27.713Z,72.87
2022-10-26T14:24:56.750Z,72.66
2022-10-26T14:27:26.423Z,73.15
2022-10-26T14:30:20.511Z,72.85
2022-10-26T14:32:41.444Z,73.29
2022-10-26T14:35:15.106Z,73.59
2022-10-26T14:37:54.088Z,73.15
2022-10-26T14:40:24.926Z,73.23
2022-10-26T14:42:54.807Z,73.64
2022-10-26T14:45:50.307Z,73.12
2022-10-26T14:48:26.345Z,73.31
2022-10-26T14:51:08.135Z,73.07
2022-10-26T14:53:39.193Z,73.05
2022-10-26T14:56:24.305Z,73.08
2022-10-26T14:58:52.863Z,72.75
2022-10-26T15:01:22.537Z,73.05
2022-10-26T15:04:28.314Z,73.11
2022-10-26T15:07:07.203Z,73.06
2022-10-26T15:09:48.851Z,73.07
2022-10-26T15:12:27.447Z,73.42
2022-10-26T15:14:55.126Z,74.07
2022-10-26T15:17:33.491Z,73.99
2022-10-26T15:20:12.414Z,74.38
2022-10-26T15:22:40.235Z,74.78
2022-10-26T15:25:07.140Z,74.90
2022-10-26T15:27:34.718Z,74.85
2022-10-26T15:30:22.980Z,76.10
2022-10-26T15:32:50.565Z,75.36
2022-10-26T15:35:33.805Z,76.75
2022-10-26T15:38:00.973Z,75.58
2022-10-26T15:40:30.638Z,77.00
2022-10-26T15:42:59.991Z,76.70
2022-10-26T15:45:30.082Z,76.98
2022-10-26T15:47:59.124Z,76.67
2022-10-26T15:50:28.664Z,77.84
2022-10-26T15:53:00.711Z,77.95
2022-10-26T15:55:29.027Z,77.00
2022-10-26T15:57:55.893Z,78.25
2022-10-26T16:00:22.526Z,78.17
2022-10-26T16:02:49.154Z,78.38
2022-10-26T16:05:16.879Z,78.70
2022-10-26T16:07:46.417Z,77.97
2022-10-26T16:10:20.647Z,80.12
2022-10-26T16:12:47.635Z,79.49
2022-10-26T16:15:18.827Z,81.76
2022-10-26T16:17:46.042Z,80.79
2022-10-26T16:20:24.658Z,81.29
2022-10-26T16:22:52.676Z,81.34
2022-10-26T16:25:22.929Z,81.01
2022-10-26T16:27:50.637Z,81.08
2022-10-26T16:30:18.837Z,82.05
2022-10-26T16:32:48.583Z,81.59
2022-10-26T16:35:17.504Z,81.25
2022-10-26T16:37:45.477Z,82.43
2022-10-26T16:40:12.315Z,82.24
2022-10-26T16:42:43.691Z,83.02
2022-10-26T16:45:11.966Z,82.03
2022-10-26T16:47:40.072Z,83.36
2022-10-26T16:50:08.569Z,82.09
2022-10-26T16:52:36.286Z,83.00
2022-10-26T16:55:03.841Z,81.88
2022-10-26T16:57:30.405Z,81.49
2022-10-26T16:59:57.610Z,82.01
2022-10-26T17:02:24.535Z,81.53
2022-10-26T17:04:51.551Z,81.49
2022-10-26T17:07:18.229Z,81.48
2022-10-26T17:09:44.837Z,81.58
2022-10-26T17:12:11.580Z,81.56
2022-10-26T17:14:38.273Z,81.26
2022-10-26T17:17:04.797Z,81.45
2022-10-26T17:19:31.421Z,81.95
2022-10-26T17:21:57.967Z,82.19
2022-10-26T17:24:24.479Z,81.53
2022-10-26T17:26:51.099Z,81.66
2022-10-26T17:29:17.812Z,81.08
2022-10-26T17:31:44.422Z,81.37
2022-10-26T17:34:11.015Z,81.92
2022-10-26T17:36:37.648Z,81.45
2022-10-26T17:39:04.284Z,81.55
2022-10-26T17:41:33.489Z,82.05
2022-10-26T17:44:00.037Z,81.53
2022-10-26T17:46:27.332Z,81.73
2022-10-26T17:48:58.521Z,81.92
2022-10-26T17:51:26.394Z,81.85
2022-10-26T17:53:53.495Z,81.61
2022-10-26T17:56:31.611Z,81.64
2022-10-26T17:59:04.188Z,81.89
2022-10-26T18:01:31.782Z,82.15
2022-10-26T18:03:59.268Z,81.93
2022-10-26T18:06:25.865Z,81.99
2022-10-26T18:08:52.576Z,83.21
2022-10-26T18:11:26.433Z,83.22
2022-10-26T18:13:57.452Z,83.35
2022-10-26T18:16:25.970Z,82.27
2022-10-26T18:19:02.934Z,83.15
2022-10-26T18:21:32.267Z,83.13
2022-10-26T18:23:59.873Z,82.51
2022-10-26T18:26:28.898Z,82.10
2022-10-26T18:28:56.654Z,82.60
2022-10-26T18:31:24.698Z,82.74
2022-10-26T18:34:10.304Z,83.46
2022-10-26T18:39:04.707Z,82.72
2022-10-26T18:41:31.369Z,82.89
2022-10-26T18:44:02.155Z,82.88
2022-10-26T18:46:30.743Z,82.49
2022-10-26T18:48:58.829Z,81.98
2022-10-26T18:51:31.644Z,82.49
2022-10-26T18:53:58.755Z,82.75
2022-10-26T18:56:25.619Z,82.70
2022-10-26T18:58:55.394Z,82.75
2022-10-26T19:01:24.647Z,82.50
2022-10-26T19:04:08.457Z,83.64
2022-10-26T19:06:40.709Z,83.56
2022-10-26T19:09:10.077Z,83.19
2022-10-26T19:11:37.652Z,83.12
2022-10-26T19:14:07.990Z,83.00
2022-10-26T19:16:50.853Z,83.00
2022-10-26T19:19:18.560Z,83.28
2022-10-26T19:21:49.525Z,82.94
2022-10-26T19:24:20.064Z,83.21
2022-10-26T19:26:51.621Z,83.86
2022-10-26T19:29:18.814Z,83.37
2022-10-26T19:31:46.443Z,83.95
2022-10-26T19:34:14.721Z,83.69
2022-10-26T19:36:44.849Z,84.03
2022-10-26T19:39:13.066Z,83.77
2022-10-26T19:41:39.636Z,83.51
2022-10-26T19:44:07.955Z,82.91
2022-10-26T19:46:34.705Z,83.49
2022-10-26T19:49:01.945Z,83.13
2022-10-26T19:51:30.672Z,83.23
2022-10-26T19:54:03.738Z,83.58
2022-10-26T19:56:32.599Z,83.34
2022-10-26T19:58:59.735Z,83.64
2022-10-26T20:01:26.601Z,83.14
2022-10-26T20:03:53.361Z,83.40
2022-10-26T20:06:19.991Z,83.95
2022-10-26T20:08:48.305Z,83.64
2022-10-26T20:11:17.143Z,83.59
2022-10-26T20:13:45.339Z,83.46
2022-10-26T20:16:12.975Z,83.20
2022-10-26T20:18:44.091Z,83.19
2022-10-26T20:21:16.563Z,84.29
2022-10-26T20:23:43.960Z,84.19
2022-10-26T20:26:18.006Z,84.01
2022-10-26T20:28:48.101Z,83.79
2022-10-26T20:31:19.201Z,83.56
2022-10-26T20:33:48.578Z,85.29
2022-10-26T20:36:15.147Z,84.86
2022-10-26T20:38:42.055Z,84.24
2022-10-26T20:41:14.560Z,84.25
2022-10-26T20:43:41.862Z,84.61
2022-10-26T20:46:23.282Z,84.40
2022-10-26T20:48:51.109Z,84.74
2022-10-26T20:51:22.283Z,84.52
2022-10-26T20:54:06.756Z,84.98
2022-10-26T20:56:34.497Z,84.36
2022-10-26T20:59:03.041Z,85.15
2022-10-26T21:01:34.589Z,85.85
2022-10-26T21:04:03.075Z,85.93
2022-10-26T21:06:30.073Z,84.83
2022-10-26T21:08:57.350Z,85.34
2022-10-26T21:11:27.017Z,85.52
2022-10-26T21:13:54.514Z,85.92
2022-10-26T21:18:52.989Z,86.09
2022-10-26T21:21:25.377Z,87.33
2022-10-26T21:23:52.570Z,86.73
2022-10-26T21:26:19.205Z,87.16
2022-10-26T21:28:51.304Z,86.90
2022-10-26T21:31:18.953Z,87.27
2022-10-26T21:33:46.161Z,86.37
2022-10-26T21:36:14.062Z,85.81
2022-10-26T21:38:42.785Z,86.42
2022-10-26T21:41:16.381Z,85.88
2022-10-26T21:44:03.377Z,86.68
2022-10-26T21:46:36.032Z,87.09
2022-10-26T21:49:02.657Z,86.67
2022-10-26T21:51:29.429Z,86.83
2022-10-26T21:53:56.053Z,86.27
2022-10-26T21:56:22.594Z,86.23
2022-10-26T21:58:49.229Z,86.63
2022-10-26T22:01:23.160Z,86.99
2022-10-26T22:03:50.094Z,86.59
2022-10-26T22:06:21.220Z,85.79
2022-10-26T22:08:48.185Z,86.31
2022-10-26T22:11:16.922Z,86.19
2022-10-26T22:13:45.272Z,86.23
2022-10-26T22:16:11.819Z,85.95
2022-10-26T22:18:40.405Z,85.68
2022-10-26T22:21:07.676Z,85.41
2022-10-26T22:23:38.269Z,86.45
2022-10-26T22:26:06.780Z,85.92
2022-10-26T22:28:41.563Z,86.47
2022-10-26T22:31:12.888Z,87.10
2022-10-26T22:33:40.012Z,87.09
2022-10-26T22:36:09.203Z,87.58
2022-10-26T22:38:36.003Z,87.13
2022-10-26T22:41:02.774Z,87.76
2022-10-26T22:43:30.138Z,88.10
2022-10-26T22:46:07.114Z,88.36
2022-10-26T22:48:34.871Z,88.02
2022-10-26T22:51:09.231Z,87.99
2022-10-26T22:53:36.306Z,87.52
2022-10-26T22:56:04.363Z,87.75
2022-10-26T22:58:33.321Z,87.71
2022-10-26T23:01:04.435Z,88.24
2022-10-26T23:03:31.103Z,87.93
2022-10-26T23:05:57.945Z,87.97
2022-10-26T23:08:24.971Z,87.93
2022-10-26T23:10:51.834Z,87.86
2022-10-26T23:13:18.443Z,87.78
2022-10-26T23:15:45.014Z,88.35
2022-10-26T23:18:11.555Z,87.62
2022-10-26T23:20:38.093Z,87.79
2022-10-26T23:23:04.701Z,88.85
2022-10-26T23:25:31.449Z,88.47
2022-10-26T23:27:57.982Z,88.39
2022-10-26T23:30:24.716Z,88.79
2022-10-26T23:32:51.628Z,88.87
2022-10-26T23:35:21.213Z,88.43
2022-10-26T23:37:47.806Z,88.79
2022-10-26T23:40:14.389Z,88.12
2022-10-26T23:42:41.020Z,88.37
2022-10-26T23:45:09.823Z,88.48
2022-10-26T23:47:36.339Z,88.41
2022-10-26T23:50:02.943Z,88.25
2022-10-26T23:52:29.510Z,87.82
2022-10-26T23:54:56.081Z,87.95
2022-10-26T23:57:22.669Z,87.80
2022-10-26T23:59:49.261Z,87.94
